AirNav   BOSE ProFlight Aviation Headset
 
 1130 users online  

SC00 Triple Tree Airport
Woodruff, South Carolina, USA

GOING TO WOODRUFF?


FAA INFORMATION EFFECTIVE 21 JUNE 2018

Location

FAA Identifier: SC00
Lat/Long: 34-40-28.0000N / 082-00-05.0000W
34-40.466667N / 082-00.083333W
34.6744444 / -82.0013889
(estimated)
Elevation: 680 ft. / 207 m (estimated)
Variation: 05W (1995)
From city: 6 miles S of WOODRUFF, SC
Time zone: UTC -4 (UTC -5 during Standard Time)
Zip code: 29388

Airport Operations

Airport use: Private use. Permission required prior to landing
Activation date: 06/1999
Control tower: no
ARTCC: ATLANTA CENTER
FSS: ANDERSON FLIGHT SERVICE STATION
Attendance: UNATNDD
Wind indicator: yes
Segmented circle: no

Airport Communications

WX AWOS-3 at LUX (10 nm S): 123.975 (864-682-3639)
WX AWOS-3 at SPA (15 nm N): 133.925 (864-587-2529)
WX ASOS at GSP (17 nm NW): 134.25 (864-879-0614)
WX AWOS-3 at GYH (19 nm W): 127.325 (864-277-5674)

Nearby radio navigation aids

VOR radial/distance  VOR name  Freq  Var
SPAr192/21.9SPARTANBURG VORTAC115.7002W
GRDr018/26.5GREENWOOD VORTAC115.5001W

 
NDB name  Hdg/Dist  Freq  Var  ID
FAIRMONT188/13.624805WFRT ..-. .-. -
UNION COUNTY274/17.732606WUOT ..- --- -
CORONACA017/25.623907WGIW --. .. .--
ENOREE327/28.327807WEOE . --- .
LAKE KEOWEE107/35.640804WLQK .-.. --.- -.-
FIRST RIVER216/39.941706WSLP ... .-.. .--.

Airport Services

Fuel available: UL94

Runway Information

Runway 3/21

Dimensions: 7000 x 400 ft. / 2134 x 122 m
Surface: turf
RUNWAY 3  RUNWAY 21
Traffic pattern: leftleft

Airport Ownership and Management from official FAA records

Ownership: Privately-owned
Owner: TRIPLE TREE AERODROME, INC.
330 MARY HANNA RD
WOODRUFF, SC 29388
Phone (864) 213-1754
Manager: PAT DERRICK
50 ROCKY CREEK RD. #12
GREENVILLE, SC 29615
Phone (864) 213-1754
OTHER CONTACT PAT DERRICK 864-270-1166

Airport Operational Statistics

Aircraft based on the field: 11
Single engine airplanes: 8
Multi engine airplanes: 1
Gliders airplanes: 1
Ultralights: 1
    

Additional Remarks

282 FT ANTENNA 1.5 MILES NW OF ARPT.

Instrument Procedures

There are no published instrument procedures at SC00.

Some nearby airports with instrument procedures:

KLUX - Laurens County Airport (10 nm S)
KSPA - Spartanburg Downtown Memorial Airport (15 nm N)
KGSP - Greenville Spartanburg International Airport (17 nm NW)
35A - Union County Airport, Troy Shelton Field (18 nm E)
KGYH - Donaldson Field Airport (19 nm W)
 
Loc | Ops | Rwys | IFR | FBO | Links
Com | Nav | Svcs | Stats | Notes


 
Area around SC00 (Triple Tree Airport)
 
Road maps at: MapQuest Bing Google
 
Aerial photo
WARNING: Photo may not be current or correct
Aerial photo of SC00 (Triple Tree Airport)
Photo by Dick Hitt
Photo taken 22-Jul-2012
looking southwest.

Do you have a better or more recent aerial photo of Triple Tree Airport that you would like to share? If so, please send us your photo.

 
Sectional chart

 
Airport distance calculator
Flying to Triple Tree Airport? Find the distance to fly.

From to SC00

Sunrise and sunset
Times for 16-Jul-2018
 Local
(UTC-4)
 Zulu
(UTC)
Morning civil twilight05:5909:59
Sunrise06:2810:28
Sunset20:4000:40
Evening civil twilight21:0901:09

Current date and time
Zulu (UTC)  17-Jul-2018 00:14:14
Local (UTC-4)  16-Jul-2018 20:14:14
 
METAR
KLUX 
10nm S 
162355Z AUTO 24004KT 10SM TSRA SCT044 SCT050 BKN095 25/24 A3002 RMK AO2 LTG DSNT N AND SW
KGSP 
17nm NW 
162353Z 25003KT 8SM CLR 23/23 A3002 RMK AO2 LTG DSNT SE SLP154 60034 T02280228 10306 20228 51002
KGYH 
19nm W 
162347Z 05003KT 10SM -RA SCT037 24/23 A3001 RMK TSE47 TS MOV NE
KGMU 
20nm NW 
162353Z 15003KT 6SM -RA BR BKN110 24/24 A3002 RMK AO2 LTG DSNT SE RAE2254B13 SLP155 P0001 60191 T02440239 10311 20233 50004
TAF
KGSP 
17nm NW 
162058Z 1621/1718 18006KT P6SM VCTS SCT017 SCT025 OVC045CB TEMPO 1621/1623 25015G25KT 2SM TSRA BKN016 OVC025CB FM170300 21004KT P6SM VCSH SCT025 BKN090 FM171100 24004KT P6SM BKN070 PROB30 1713/1718 4SM -TSRA OVC025CB
KGMU 
20nm NW 
162126Z 1621/1718 VRB05KT P6SM VCTS FEW035 BKN050CB TEMPO 1621/1623 VRB10G20KT 2SM TSRA OVC025CB FM170300 21004KT P6SM VCSH SCT025 BKN090 FM171100 24004KT P6SM BKN070 PROB30 1713/1718 4SM -TSRA OVC025CB
NOTAMs
Click for the latest NOTAMs
NOTAMs are issued by the DoD/FAA and will open in a separate window not controlled by AirNav.

 

 
 

Would you like to see your business listed on this page?

 If your business provides an interesting product or service to pilots, flight crews, aircraft, or users of the Triple Tree Airport, you should consider listing it here.  To start the listing process, click on the button below
 
Add a business
 

Other Pages about Triple Tree Airport

www.tripletreeaerodrome.com
 
Update a link
 
Copyright © AirNav, LLC. All rights reserved. Privacy Policy  Contact